createdAt,value
2023-02-28T12:38:34.488Z,1019.81
2023-02-28T12:39:44.886Z,1019.79
2023-02-28T12:40:34.434Z,1019.79
2023-02-28T12:41:34.423Z,1019.79
2023-02-28T12:42:34.385Z,1019.77
2023-02-28T12:43:34.351Z,1019.77
2023-02-28T12:44:34.316Z,1019.76
2023-02-28T12:45:34.361Z,1019.77
2023-02-28T12:46:34.376Z,1019.78
2023-02-28T12:47:34.274Z,1019.83
2023-02-28T12:48:34.246Z,1019.82
2023-02-28T12:49:34.211Z,1019.83
2023-02-28T12:50:34.196Z,1019.78
2023-02-28T12:51:34.165Z,1019.77
2023-02-28T12:52:34.145Z,1019.82
2023-02-28T12:53:34.121Z,1019.75
2023-02-28T12:54:34.089Z,1019.73
2023-02-28T12:55:34.069Z,1019.65
2023-02-28T12:56:34.067Z,1019.66
2023-02-28T12:57:34.031Z,1019.71
2023-02-28T12:58:34.023Z,1019.67
2023-02-28T12:59:33.978Z,1019.57
2023-02-28T13:00:33.960Z,1019.60
2023-02-28T13:01:34.301Z,1019.64
2023-02-28T13:02:34.025Z,1019.62
2023-02-28T13:03:33.914Z,1019.52
2023-02-28T13:04:33.881Z,1019.55
2023-02-28T13:05:33.869Z,1019.53
2023-02-28T13:06:33.855Z,1019.51
2023-02-28T13:07:33.858Z,1019.51
2023-02-28T13:08:33.811Z,1019.52
2023-02-28T13:09:33.763Z,1019.58
2023-02-28T13:10:33.748Z,1019.57
2023-02-28T13:11:33.961Z,1019.59
2023-02-28T13:12:33.727Z,1019.62
2023-02-28T13:13:33.693Z,1019.60
2023-02-28T13:14:33.704Z,1019.60
2023-02-28T13:15:33.633Z,1019.58
2023-02-28T13:16:35.207Z,1019.56
2023-02-28T13:17:33.597Z,1019.52
2023-02-28T13:18:33.620Z,1019.53
2023-02-28T13:19:33.573Z,1019.48
2023-02-28T13:20:33.562Z,1019.49
2023-02-28T13:21:33.534Z,1019.53
2023-02-28T13:22:33.501Z,1019.46
2023-02-28T13:23:33.514Z,1019.41
2023-02-28T13:24:33.462Z,1019.49
2023-02-28T13:25:33.435Z,1019.43
2023-02-28T13:26:33.498Z,1019.45
2023-02-28T13:27:33.437Z,1019.45
2023-02-28T13:28:33.402Z,1019.41
2023-02-28T13:29:33.376Z,1019.41
2023-02-28T13:30:33.393Z,1019.40
2023-02-28T13:31:33.320Z,1019.36
2023-02-28T13:32:33.324Z,1019.46
2023-02-28T13:33:33.297Z,1019.40
2023-02-28T13:34:33.301Z,1019.36
2023-02-28T13:35:33.282Z,1019.38
2023-02-28T13:36:33.250Z,1019.44
2023-02-28T13:37:33.228Z,1019.43
2023-02-28T13:38:33.196Z,1019.39
2023-02-28T13:39:35.214Z,1019.43
2023-02-28T13:40:33.171Z,1019.41
2023-02-28T13:41:33.285Z,1019.39
2023-02-28T13:42:33.115Z,1019.38
2023-02-28T13:43:36.043Z,1019.35
2023-02-28T13:44:33.100Z,1019.28
2023-02-28T13:45:33.077Z,1019.29
2023-02-28T13:46:33.102Z,1019.30
2023-02-28T13:47:33.032Z,1019.28
2023-02-28T13:48:33.007Z,1019.30
2023-02-28T13:49:33.032Z,1019.28
2023-02-28T13:50:32.979Z,1019.36
2023-02-28T13:51:33.979Z,1019.33
2023-02-28T13:52:32.941Z,1019.30
2023-02-28T13:53:32.929Z,1019.34
2023-02-28T13:54:32.937Z,1019.27
2023-02-28T13:55:32.900Z,1019.26
2023-02-28T13:56:32.882Z,1019.25
2023-02-28T13:57:32.853Z,1019.28
2023-02-28T13:58:32.853Z,1019.24
2023-02-28T13:59:32.813Z,1019.26
2023-02-28T14:00:41.682Z,1019.27
2023-02-28T14:01:33.262Z,1019.23
2023-02-28T14:02:32.744Z,1019.27
2023-02-28T14:03:32.728Z,1019.23
2023-02-28T14:04:33.704Z,1019.35
2023-02-28T14:05:32.709Z,1019.34
2023-02-28T14:06:32.896Z,1019.28
2023-02-28T14:07:36.257Z,1019.33
2023-02-28T14:08:32.636Z,1019.34
2023-02-28T14:09:32.602Z,1019.30
2023-02-28T14:10:32.629Z,1019.29
2023-02-28T14:11:32.588Z,1019.25
2023-02-28T14:12:32.555Z,1019.28
2023-02-28T14:13:32.556Z,1019.20
2023-02-28T14:14:32.548Z,1019.26
2023-02-28T14:15:32.557Z,1019.21
2023-02-28T14:16:32.561Z,1019.20
2023-02-28T14:17:32.461Z,1019.15
2023-02-28T14:18:32.478Z,1019.21
2023-02-28T14:19:32.459Z,1019.20
2023-02-28T14:20:32.438Z,1019.18
2023-02-28T14:21:32.396Z,1019.14
2023-02-28T14:22:32.376Z,1019.11
2023-02-28T14:23:32.355Z,1019.14
2023-02-28T14:24:32.365Z,1019.14
2023-02-28T14:25:32.341Z,1019.15
2023-02-28T14:26:32.325Z,1019.12
2023-02-28T14:27:32.289Z,1019.08
2023-02-28T14:28:32.277Z,1019.06
2023-02-28T14:44:59.522Z,1019.11
2023-02-28T14:45:59.512Z,1019.18
2023-02-28T14:46:59.493Z,1019.22
2023-02-28T14:47:59.452Z,1019.23
2023-02-28T14:48:59.455Z,1019.27
2023-02-28T14:49:59.426Z,1019.26
2023-02-28T14:50:59.420Z,1019.05
2023-02-28T14:51:59.388Z,1018.91
2023-02-28T14:52:59.387Z,1018.95
2023-02-28T14:53:59.356Z,1018.89
2023-02-28T14:54:59.353Z,1018.95
2023-02-28T14:55:59.303Z,1018.95
